Terminal Aerodrome Forecast
Issued by NWS Shreveport, LA

Home | Current Version | Previous Version | Text Only | Print | Product List | Glossary On
Versions: 1 2 3 4 5 6 7 8 9 10 11 12 13 14
517
FTUS44 KSHV 140840 AAA
TAFTXK
TAF AMD
KTXK 140840Z 1409/1506 13006KT P6SM OVC025
      TEMPO 1409/1411 SCT025 OVC035
     FM141500 16008KT P6SM OVC020
     FM150000 16005KT 6SM BR VCSH OVC015
     FM150300 15005KT 4SM BR VCTS BKN008CB OVC015=

USA.gov is the U.S. government's official web portal to all federal, state and local government web resources and services.